Flight Track Log - Related Links

Times and Time Zones

All times are in EDT time to prevent confusion due to time zone crossing. See the CTL18 flight status page for this flight to view local times or setup timezone preferences in your user account.

Time Position Orientation Groundspeed Altitude Reporting Facility
EDT Latitude Longitude Course Direction KTS MPH feet Rate Location/Type
Tue 09:01:19 PM 42.2022 -83.5769 223° Southwest 122 140 1,600  Level Cleveland Center
Tue 09:02:26 PM 42.1703 -83.6089 217° Southwest 138 159 2,300 609 Climbing Cleveland Center
Tue 09:03:27 PM 42.1261 -83.6181 189° South 154 177 2,900 414 Climbing Cleveland Center
Tue 09:04:22 PM 42.0886 -83.6164 178° South 155 178 3,100 103 Climbing Cleveland Center
Tue 09:05:23 PM 42.0428 -83.6197 183° South 167 192 3,100  Level Cleveland Center
Tue 09:06:18 PM 41.9992 -83.6147 175° South 178 205 3,100  Level Cleveland Center
Tue 09:07:13 PM 41.9839 -83.5556 109° East 188 216 3,100  Level Cleveland Center
Tue 09:08:20 PM 41.9672 -83.4764 106° East 196 226 3,100  Level Cleveland Center
Tue 09:09:14 PM 41.9519 -83.4200 110° East 193 222 3,100 261 Level Cleveland Center
Tue 09:10:15 PM 41.9369 -83.3522 107° East 186 214 3,600 541 Climbing Cleveland Center
Tue 09:11:16 PM 41.9197 -83.2872 110° East 178 205 4,200 639 Climbing Cleveland Center
Tue 09:12:17 PM 41.9067 -83.2253 106° East 172 198 4,900 443 Climbing Cleveland Center
Tue 09:13:18 PM 41.8892 -83.1633 111° Southeast 183 211 5,100 99 Climbing Cleveland Center
Tue 09:14:18 PM 41.8719 -83.0928 108° East 195 224 5,100 47 Level Cleveland Center
Tue 09:15:25 PM 41.8547 -83.0197 108° East 197 227 5,200 62 Climbing Cleveland Center
Tue 09:15:55 PM 41.8450 -82.9886 113° Southeast 196 226 5,200  Level Cleveland Center
Tue 09:16:56 PM 41.8300 -82.9156 105° East 193 222 5,200 -50 Level Cleveland Center
Tue 09:17:56 PM 41.8103 -82.8481 111° Southeast 194 223 5,100 -50 Descending Cleveland Center
Tue 09:18:57 PM 41.7950 -82.7778 106° East 195 224 5,100 49 Level Cleveland Center
Tue 09:19:58 PM 41.7797 -82.7078 106° East 201 231 5,200  Climbing Cleveland Center
Tue 09:20:58 PM 41.7664 -82.6378 104° East 197 227 5,100  Descending Cleveland Center
Tue 09:21:59 PM 41.7469 -82.5619 109° East 196 226 5,200 49 Climbing Cleveland Center
Tue 09:23:00 PM 41.7294 -82.4889 108° East 199 229 5,200  Level Cleveland Center
Tue 09:24:06 PM 41.7097 -82.4161 110° East 196 226 5,200  Level Cleveland Center
Tue 09:25:07 PM 41.6900 -82.3461 111° Southeast 198 228 5,200  Level Cleveland Center
Tue 09:26:07 PM 41.6742 -82.2817 108° East 200 230 5,200 -283 Level Cleveland Center
Tue 09:27:14 PM 41.6506 -82.1950 110° East 208 239 4,600 -563 Descending Cleveland Center
Tue 09:28:15 PM 41.6369 -82.1222 104° East 207 238 4,000 -626 Descending Cleveland Center
Tue 09:29:09 PM 41.6192 -82.0525 109° East 209 241 3,400 -522 Descending Cleveland Center
Tue 09:30:10 PM 41.5992 -81.9769 109° East 209 241 3,000 -590 Descending Cleveland Center
Tue 09:31:11 PM 41.5814 -81.9044 108° East 210 242 2,200 -614 Descending Cleveland Center
Tue 09:32:17 PM 41.5614 -81.8264 109° East 201 231 1,700 -283 Descending Cleveland Center
Tue 09:33:18 PM 41.5494 -81.7594 103° East 178 205 1,600 -98 Descending Cleveland Center
Tue 09:34:19 PM 41.5417 -81.6983 100° East 170 196 1,500 -98 Descending Cleveland Center

Login

Don't have an account? Register now (free) for customized features, flight alerts, and more!